Time;durP1;ratioP1;P1;durP2;ratioP2;P2;SDS_P1;SDS_P2;PMS_P1;PMS_P2;Temp;Humidity;BMP_temperature;BMP_pressure;BME280_temperature;BME280_humidity;BME280_pressure;Samples;Min_cycle;Max_cycle;Signal;HPM_P1;HPM_P2
2021/01/23 00:02:23;;;;;;;6.28;4.30;;;4.00;82.50;;;;;;5011996;28;20180;-89
2021/01/23 00:04:50;;;;;;;6.63;4.15;;;4.00;82.50;;;;;;5011331;28;20025;-88
2021/01/23 00:07:16;;;;;;;7.20;4.15;;;4.00;82.50;;;;;;5011806;28;20077;-91
2021/01/23 00:09:41;;;;;;;8.05;4.20;;;4.00;82.50;;;;;;5014508;28;20034;-89
2021/01/23 00:12:07;;;;;;;8.35;4.97;;;4.10;82.50;;;;;;5007521;28;20025;-88
2021/01/23 00:14:33;;;;;;;7.82;4.80;;;4.00;82.40;;;;;;5012378;28;20030;-88
2021/01/23 00:16:59;;;;;;;9.63;4.57;;;4.10;82.40;;;;;;5011154;28;20029;-90
2021/01/23 00:19:24;;;;;;;8.68;5.13;;;4.10;82.40;;;;;;5012038;28;20048;-89
2021/01/23 00:21:54;;;;;;;8.32;4.55;;;4.10;82.40;;;;;;5007263;28;20547;-90
2021/01/23 00:24:20;;;;;;;9.35;5.10;;;4.00;82.40;;;;;;5002284;28;20045;-90
2021/01/23 00:26:46;;;;;;;11.48;6.18;;;4.00;82.30;;;;;;5013101;28;20025;-90
2021/01/23 00:29:16;;;;;;;9.23;5.40;;;4.00;82.20;;;;;;5013595;28;20042;-90
2021/01/23 00:31:41;;;;;;;9.57;5.57;;;4.00;82.30;;;;;;5011214;28;20076;-89
2021/01/23 00:34:08;;;;;;;7.72;5.22;;;3.90;82.20;;;;;;5012019;28;20021;-89
2021/01/23 00:36:34;;;;;;;7.70;4.75;;;3.90;82.20;;;;;;5010616;28;20053;-89
2021/01/23 00:38:59;;;;;;;7.97;4.65;;;3.90;82.20;;;;;;5012154;28;20049;-90
2021/01/23 00:41:26;;;;;;;6.57;4.30;;;4.00;82.20;;;;;;5012641;28;20175;-89
2021/01/23 00:43:53;;;;;;;7.18;4.20;;;3.90;82.10;;;;;;5013493;28;20392;-88
2021/01/23 00:46:21;;;;;;;6.20;3.80;;;4.00;82.10;;;;;;5019475;28;20045;-90
2021/01/23 00:48:47;;;;;;;6.70;4.00;;;4.00;82.10;;;;;;5031320;28;20026;-90
2021/01/23 00:51:13;;;;;;;5.45;3.80;;;4.00;82.10;;;;;;5022380;28;20054;-89
2021/01/23 00:53:38;;;;;;;6.55;3.60;;;4.00;82.00;;;;;;5013417;28;20026;-90
2021/01/23 00:56:04;;;;;;;7.75;4.30;;;4.00;82.00;;;;;;5012507;28;20032;-90
2021/01/23 00:58:31;;;;;;;9.40;5.78;;;4.00;81.90;;;;;;5010953;28;20025;-90
2021/01/23 01:00:57;;;;;;;7.60;4.10;;;4.00;81.90;;;;;;5012606;28;20179;-90
2021/01/23 01:03:22;;;;;;;8.45;4.78;;;4.00;81.90;;;;;;5011173;28;20040;-90
2021/01/23 01:05:48;;;;;;;7.72;4.90;;;4.00;81.90;;;;;;5013245;28;20045;-90
2021/01/23 01:08:14;;;;;;;7.55;4.45;;;3.90;81.80;;;;;;5013792;28;20033;-91
2021/01/23 01:10:45;;;;;;;8.48;4.68;;;3.90;81.90;;;;;;5014546;28;20468;-92
2021/01/23 01:13:14;;;;;;;6.68;3.83;;;3.90;82.00;;;;;;5015716;28;20030;-91
2021/01/23 01:15:43;;;;;;;6.78;3.90;;;3.90;82.00;;;;;;5014307;28;20022;-91
2021/01/23 01:18:09;;;;;;;4.40;3.40;;;3.90;82.10;;;;;;5015396;28;20018;-92
2021/01/23 01:20:35;;;;;;;5.85;3.88;;;3.90;82.10;;;;;;5021410;28;20034;-90
2021/01/23 01:23:01;;;;;;;5.75;3.58;;;3.90;82.10;;;;;;5038122;28;20024;-90
2021/01/23 01:25:27;;;;;;;5.72;3.63;;;4.00;82.10;;;;;;5038038;28;20022;-90
2021/01/23 01:27:53;;;;;;;7.22;4.47;;;3.90;82.10;;;;;;5037249;28;19998;-90
2021/01/23 01:30:21;;;;;;;6.25;4.00;;;3.90;82.10;;;;;;5036251;28;20010;-90
2021/01/23 01:33:17;;;;;;;6.15;4.45;;;3.90;82.10;;;;;;5033875;28;20048;-90
2021/01/23 01:35:43;;;;;;;6.75;3.95;;;3.90;82.10;;;;;;5035027;28;20038;-89
2021/01/23 01:38:12;;;;;;;5.28;3.47;;;3.90;82.00;;;;;;5032169;28;20018;-90
2021/01/23 01:40:38;;;;;;;4.85;3.38;;;3.90;82.00;;;;;;5035549;28;20022;-91
2021/01/23 01:43:11;;;;;;;5.40;3.70;;;3.80;81.90;;;;;;5035910;28;20072;-90
2021/01/23 01:45:42;;;;;;;9.40;5.32;;;3.80;82.00;;;;;;5024560;28;20137;-91
2021/01/23 01:48:11;;;;;;;9.77;5.50;;;3.80;82.00;;;;;;5014140;28;20034;-90
2021/01/23 01:50:38;;;;;;;9.80;5.10;;;3.80;82.00;;;;;;5012064;28;20052;-92
2021/01/23 01:53:29;;;;;;;6.45;3.92;;;3.70;81.90;;;;;;5020429;28;20034;-91
2021/01/23 01:56:33;;;;;;;6.72;4.30;;;3.90;82.10;;;;;;5030812;28;20372;-91
2021/01/23 01:59:38;;;;;;;8.70;3.95;;;3.80;81.90;;;;;;5004428;28;20099;-91
2021/01/23 02:02:35;;;;;;;5.78;3.45;;;3.80;81.80;;;;;;5013380;28;20030;-92
2021/01/23 02:05:37;;;;;;;5.45;3.42;;;3.80;81.80;;;;;;5014957;28;20055;-89
2021/01/23 02:08:17;;;;;;;4.22;3.08;;;3.80;81.80;;;;;;5025877;28;20017;-90
2021/01/23 02:11:03;;;;;;;10.57;5.40;;;3.90;81.80;;;;;;5030078;28;20026;-89
2021/01/23 02:13:44;;;;;;;6.88;4.50;;;3.70;81.70;;;;;;5032801;28;20010;-89
2021/01/23 02:16:14;;;;;;;6.15;4.05;;;3.70;81.80;;;;;;5036647;28;20013;-89
2021/01/23 02:18:49;;;;;;;7.25;4.18;;;3.70;81.80;;;;;;5036303;28;20037;-88
2021/01/23 02:21:35;;;;;;;8.55;5.00;;;3.70;81.70;;;;;;5025253;28;20010;-89
2021/01/23 02:24:06;;;;;;;7.25;4.05;;;3.70;81.70;;;;;;5034476;28;20209;-89
2021/01/23 02:26:49;;;;;;;6.90;4.60;;;3.70;81.80;;;;;;5023142;28;20102;-89
2021/01/23 02:29:26;;;;;;;;;;;3.70;82.00;;;;;;5029729;28;20034;-89
2021/01/23 02:31:56;;;;;;;8.00;4.80;;;3.60;81.90;;;;;;5030487;28;19905;-89
2021/01/23 02:34:25;;;;;;;5.07;3.88;;;3.50;82.10;;;;;;5025952;28;20044;-90
2021/01/23 02:36:54;;;;;;;8.75;5.30;;;3.40;82.30;;;;;;5031017;28;20289;-89
2021/01/23 02:39:20;;;;;;;8.45;5.85;;;3.50;82.50;;;;;;5026407;28;20014;-90
2021/01/23 02:41:47;;;;;;;9.45;5.90;;;3.40;82.50;;;;;;5018640;28;20022;-92
2021/01/23 02:44:14;;;;;;;7.93;4.57;;;3.50;82.50;;;;;;5011462;28;20030;-90
2021/01/23 02:46:42;;;;;;;8.45;5.28;;;3.50;82.50;;;;;;5013043;28;20030;-90
2021/01/23 02:49:08;;;;;;;8.23;5.57;;;3.50;82.50;;;;;;5021864;28;20040;-91
2021/01/23 02:51:45;;;;;;;8.77;5.90;;;3.60;82.50;;;;;;5017805;28;20022;-91
2021/01/23 02:54:26;;;;;;;6.97;4.28;;;3.60;82.50;;;;;;5013014;28;20443;-89
2021/01/23 02:56:54;;;;;;;8.80;5.47;;;3.70;82.40;;;;;;5014000;28;20018;-90
2021/01/23 02:59:21;;;;;;;7.38;5.25;;;3.60;82.30;;;;;;5014573;28;20446;-90
2021/01/23 03:01:50;;;;;;;6.63;3.67;;;3.70;82.50;;;;;;5022231;28;20054;-89
2021/01/23 03:04:19;;;;;;;6.55;5.07;;;3.60;82.40;;;;;;5013372;28;20029;-89
2021/01/23 03:06:45;;;;;;;7.95;5.45;;;3.70;82.50;;;;;;5013037;28;20133;-89
2021/01/23 03:09:21;;;;;;;7.95;5.05;;;3.80;82.60;;;;;;5013347;28;20109;-88
2021/01/23 03:11:48;;;;;;;8.07;5.32;;;3.70;82.70;;;;;;5012162;28;20391;-89
2021/01/23 03:14:14;;;;;;;7.53;4.65;;;3.70;82.70;;;;;;5009013;28;20018;-89
2021/01/23 03:16:46;;;;;;;9.23;5.38;;;3.70;82.70;;;;;;5013666;28;20041;-89
2021/01/23 03:19:11;;;;;;;7.57;5.18;;;3.80;82.90;;;;;;5011706;28;20097;-89
2021/01/23 03:21:37;;;;;;;10.60;6.10;;;3.70;82.80;;;;;;5009432;28;20350;-89
2021/01/23 03:24:03;;;;;;;7.72;4.47;;;3.70;82.90;;;;;;4994247;28;20017;-89
2021/01/23 03:26:29;;;;;;;8.10;5.25;;;3.70;82.90;;;;;;5009838;28;20034;-89
2021/01/23 03:28:54;;;;;;;8.73;5.95;;;3.80;82.90;;;;;;5012536;28;20663;-90
2021/01/23 03:31:20;;;;;;;6.32;4.25;;;3.80;82.90;;;;;;5010734;28;20041;-89
2021/01/23 03:33:46;;;;;;;5.68;4.30;;;3.90;82.80;;;;;;5011555;28;20105;-89
2021/01/23 03:36:11;;;;;;;9.10;6.68;;;3.90;82.60;;;;;;5011791;28;20117;-89
2021/01/23 03:38:37;;;;;;;8.05;5.75;;;3.90;82.60;;;;;;5012068;28;20061;-88
2021/01/23 03:41:02;;;;;;;6.95;4.35;;;4.00;82.50;;;;;;5011842;28;20030;-89
2021/01/23 03:43:28;;;;;;;7.20;4.93;;;4.00;82.40;;;;;;5011384;28;20032;-89
2021/01/23 03:45:54;;;;;;;11.65;6.85;;;4.00;82.40;;;;;;5012782;28;20104;-89
2021/01/23 03:48:19;;;;;;;7.82;5.15;;;4.00;82.40;;;;;;5017518;28;20028;-89
2021/01/23 03:50:45;;;;;;;9.82;6.18;;;4.00;82.40;;;;;;5020385;28;20021;-89
2021/01/23 03:53:10;;;;;;;9.75;6.30;;;4.00;82.30;;;;;;5028749;28;20021;-89
2021/01/23 03:55:37;;;;;;;9.95;5.68;;;4.10;82.40;;;;;;5031455;28;20082;-90
2021/01/23 03:58:02;;;;;;;10.75;6.65;;;4.00;82.30;;;;;;5034518;28;20037;-90
2021/01/23 04:00:28;;;;;;;7.22;5.28;;;4.10;82.40;;;;;;5021678;28;20031;-89
2021/01/23 04:02:53;;;;;;;12.05;7.95;;;4.10;82.40;;;;;;5015559;28;20018;-88
2021/01/23 04:05:19;;;;;;;12.18;5.88;;;4.10;82.60;;;;;;5020465;28;20102;-90
2021/01/23 04:07:44;;;;;;;14.68;8.65;;;4.10;82.70;;;;;;5026223;28;20022;-90
2021/01/23 04:10:11;;;;;;;8.32;5.50;;;4.10;82.80;;;;;;5026383;28;20034;-89
2021/01/23 04:12:36;;;;;;;16.35;9.48;;;4.20;82.90;;;;;;5015660;28;20041;-90
2021/01/23 04:15:02;;;;;;;7.97;5.35;;;4.10;83.20;;;;;;5012714;28;20044;-89
2021/01/23 04:17:28;;;;;;;11.27;7.88;;;4.10;83.30;;;;;;5013459;28;20034;-91
2021/01/23 04:19:54;;;;;;;10.38;5.97;;;4.20;83.30;;;;;;5012769;28;20092;-90
2021/01/23 04:22:20;;;;;;;9.38;6.55;;;4.20;83.30;;;;;;5011009;28;20034;-90
2021/01/23 04:24:46;;;;;;;11.43;6.78;;;4.20;83.30;;;;;;5012260;28;20507;-90
2021/01/23 04:27:11;;;;;;;10.75;7.05;;;4.20;83.30;;;;;;5012372;28;20112;-91
2021/01/23 04:29:37;;;;;;;12.40;7.82;;;4.20;83.30;;;;;;5014681;28;20119;-91
2021/01/23 04:32:03;;;;;;;11.13;7.05;;;4.20;83.30;;;;;;5011809;28;20051;-90
2021/01/23 04:34:28;;;;;;;8.70;5.72;;;4.20;83.50;;;;;;5011560;28;20037;-90
2021/01/23 04:36:54;;;;;;;9.48;6.10;;;4.20;83.60;;;;;;5012218;28;20018;-91
2021/01/23 04:39:20;;;;;;;7.93;5.97;;;4.20;83.60;;;;;;5012406;28;20018;-90
2021/01/23 04:41:45;;;;;;;7.00;5.30;;;4.30;83.70;;;;;;5011846;28;20022;-91
2021/01/23 04:44:11;;;;;;;10.80;7.30;;;4.30;83.60;;;;;;5011804;28;20025;-91
2021/01/23 04:46:38;;;;;;;12.77;6.82;;;4.30;83.60;;;;;;5012344;28;20049;-91
2021/01/23 04:49:04;;;;;;;6.57;4.30;;;4.30;83.70;;;;;;5018226;28;20045;-90
2021/01/23 04:51:31;;;;;;;10.57;7.05;;;4.40;83.80;;;;;;5023292;28;20029;-90
2021/01/23 04:53:57;;;;;;;12.82;8.00;;;4.30;83.60;;;;;;5011387;28;20104;-90
2021/01/23 04:56:25;;;;;;;13.63;9.50;;;4.30;83.80;;;;;;5012224;28;20069;-90
2021/01/23 04:58:51;;;;;;;13.65;7.25;;;4.30;83.90;;;;;;5009706;28;20021;-90
2021/01/23 05:01:18;;;;;;;10.15;6.15;;;4.30;84.00;;;;;;5013578;28;20060;-91
2021/01/23 05:04:00;;;;;;;8.95;5.53;;;4.30;84.00;;;;;;5021479;28;20053;-90
2021/01/23 05:06:27;;;;;;;9.48;5.75;;;4.30;84.00;;;;;;5008509;28;20080;-90
2021/01/23 05:08:56;;;;;;;9.82;6.18;;;4.30;84.00;;;;;;5010484;28;20041;-90
2021/01/23 05:11:44;;;;;;;8.00;4.97;;;4.40;84.00;;;;;;4990398;28;20049;-91
2021/01/23 05:14:12;;;;;;;12.73;7.68;;;4.40;84.00;;;;;;5011446;28;20354;-89
2021/01/23 05:16:39;;;;;;;10.40;6.78;;;4.40;84.00;;;;;;5011326;28;20060;-89
2021/01/23 05:19:05;;;;;;;12.27;8.75;;;4.40;84.20;;;;;;5008586;28;20030;-90
2021/01/23 05:21:32;;;;;;;12.40;6.85;;;4.30;84.30;;;;;;5010238;28;20029;-90
2021/01/23 05:24:04;;;;;;;7.63;5.05;;;4.40;84.30;;;;;;5009602;28;20053;-90
2021/01/23 05:26:29;;;;;;;11.75;8.25;;;4.40;84.30;;;;;;5027481;28;20046;-90
2021/01/23 05:29:09;;;;;;;11.13;6.80;;;4.40;84.50;;;;;;5014107;28;20105;-90
2021/01/23 05:31:35;;;;;;;6.72;5.10;;;4.40;84.50;;;;;;5024195;28;20596;-91
2021/01/23 05:34:01;;;;;;;8.18;5.90;;;4.40;84.50;;;;;;5033906;28;20017;-90
2021/01/23 05:36:27;;;;;;;9.65;6.30;;;4.50;84.40;;;;;;4993185;28;20026;-91
2021/01/23 05:38:56;;;;;;;9.63;5.13;;;4.50;84.40;;;;;;5012460;28;20034;-89
2021/01/23 05:41:21;;;;;;;9.30;5.40;;;4.60;84.40;;;;;;5010426;28;20022;-90
2021/01/23 05:43:50;;;;;;;7.43;4.43;;;4.50;84.20;;;;;;5012242;28;20052;-90
2021/01/23 05:46:28;;;;;;;15.30;9.50;;;4.60;84.90;;;;;;5010891;28;20044;-90
2021/01/23 05:48:56;;;;;;;10.52;6.80;;;4.60;84.30;;;;;;5018275;28;20030;-92
2021/01/23 05:51:32;;;;;;;13.57;8.25;;;4.60;84.30;;;;;;5014932;28;20037;-91
2021/01/23 05:53:58;;;;;;;9.65;7.10;;;4.60;84.30;;;;;;4995048;28;20034;-91
2021/01/23 05:56:27;;;;;;;10.75;6.65;;;4.60;84.30;;;;;;5011591;28;20025;-90
2021/01/23 05:58:57;;;;;;;11.00;8.00;;;4.60;84.30;;;;;;5021685;28;20026;-91
2021/01/23 06:01:23;;;;;;;11.93;6.70;;;4.60;84.40;;;;;;5036874;28;20387;-91
2021/01/23 06:03:51;;;;;;;11.18;7.10;;;4.60;84.40;;;;;;5025050;28;20038;-90
2021/01/23 06:06:16;;;;;;;17.40;10.70;;;4.60;84.40;;;;;;5034947;28;20041;-89
2021/01/23 06:08:47;;;;;;;14.55;9.82;;;4.60;84.40;;;;;;5035343;28;20006;-91
2021/01/23 06:11:19;;;;;;;16.30;10.45;;;4.50;84.50;;;;;;5026997;28;20087;-91
2021/01/23 06:13:58;;;;;;;14.13;7.57;;;4.60;84.70;;;;;;5033505;28;20029;-90
2021/01/23 06:16:33;;;;;;;9.88;7.10;;;4.50;84.70;;;;;;5033493;28;20010;-91
2021/01/23 06:19:01;;;;;;;15.02;8.95;;;4.50;84.70;;;;;;5036649;28;20041;-92
2021/01/23 06:21:45;;;;;;;14.82;9.75;;;4.50;84.70;;;;;;5031325;28;20049;-91
2021/01/23 06:24:16;;;;;;;14.48;8.52;;;4.40;84.90;;;;;;5007764;28;20114;-90
2021/01/23 06:27:02;;;;;;;7.68;5.57;;;4.50;85.00;;;;;;5016894;28;20469;-91
2021/01/23 06:29:32;;;;;;;16.00;9.85;;;4.50;85.00;;;;;;5014263;28;20053;-91
2021/01/23 06:32:18;;;;;;;11.35;7.40;;;4.50;85.10;;;;;;5006613;28;20113;-90
2021/01/23 06:34:51;;;;;;;13.73;8.93;;;4.40;85.20;;;;;;5007747;28;20084;-90
2021/01/23 06:37:39;;;;;;;11.68;6.90;;;4.50;85.30;;;;;;5011991;28;20009;-89
2021/01/23 06:40:16;;;;;;;13.40;7.97;;;4.50;85.30;;;;;;5010323;28;20113;-89
2021/01/23 06:42:47;;;;;;;16.08;10.13;;;4.50;85.10;;;;;;5014117;28;20113;-89
2021/01/23 06:45:25;;;;;;;10.75;6.55;;;4.50;85.70;;;;;;5014011;28;20025;-88
2021/01/23 06:47:53;;;;;;;12.43;8.00;;;4.50;85.10;;;;;;5014136;28;20037;-90
2021/01/23 06:50:29;;;;;;;12.45;7.70;;;4.50;85.00;;;;;;5019397;28;20053;-91
2021/01/23 06:52:54;;;;;;;14.13;9.07;;;4.60;85.10;;;;;;5011111;28;20065;-90
2021/01/23 06:55:43;;;;;;;8.20;5.75;;;4.50;85.00;;;;;;5013728;28;20041;-88
2021/01/23 06:58:16;;;;;;;9.73;6.13;;;4.60;85.00;;;;;;5011551;28;20042;-88
2021/01/23 07:00:42;;;;;;;7.55;4.50;;;4.60;84.90;;;;;;5014903;28;20037;-88
2021/01/23 07:03:13;;;;;;;10.52;6.85;;;4.70;84.90;;;;;;5016415;28;20088;-90
2021/01/23 07:05:49;;;;;;;12.60;8.25;;;4.70;84.80;;;;;;5032528;28;20041;-91
2021/01/23 07:08:22;;;;;;;13.40;9.00;;;4.70;84.80;;;;;;5037702;28;20024;-91
2021/01/23 07:11:07;;;;;;;;;;;4.70;84.80;;;;;;5005089;28;20073;-91
2021/01/23 07:13:36;;;;;;;11.23;6.55;;;4.70;84.80;;;;;;5010396;28;19916;-90
2021/01/23 07:16:02;;;;;;;13.00;8.15;;;4.60;84.90;;;;;;5012736;28;20022;-90
2021/01/23 07:18:30;;;;;;;12.27;7.85;;;4.80;85.10;;;;;;5013103;28;20038;-89
2021/01/23 07:20:57;;;;;;;10.68;6.88;;;4.60;85.00;;;;;;5014096;28;20018;-90
2021/01/23 07:23:23;;;;;;;9.23;6.03;;;4.60;84.90;;;;;;5013978;28;20109;-89
2021/01/23 07:25:51;;;;;;;12.75;7.93;;;4.80;85.00;;;;;;5014847;28;20038;-91
2021/01/23 07:28:18;;;;;;;10.07;6.28;;;4.70;85.00;;;;;;5013914;28;20526;-90
2021/01/23 07:30:48;;;;;;;10.02;6.80;;;4.70;85.50;;;;;;5011184;28;20052;-90
2021/01/23 07:33:30;;;;;;;16.35;9.93;;;4.70;84.90;;;;;;5012825;28;20160;-90
2021/01/23 07:35:56;;;;;;;11.07;7.55;;;4.70;84.90;;;;;;5014060;28;20502;-90
2021/01/23 07:38:22;;;;;;;14.35;9.32;;;4.60;84.90;;;;;;5013435;28;20022;-91
2021/01/23 07:40:53;;;;;;;13.02;8.45;;;4.60;84.90;;;;;;5010974;28;20080;-87
2021/01/23 07:43:19;;;;;;;13.90;7.63;;;4.60;85.00;;;;;;5008877;28;20034;-88
2021/01/23 07:45:47;;;;;;;12.07;7.47;;;4.70;85.10;;;;;;5014555;28;20030;-88
2021/01/23 07:48:12;;;;;;;9.63;6.28;;;4.70;85.10;;;;;;5009298;28;20083;-88
2021/01/23 07:50:43;;;;;;;9.43;5.90;;;4.60;85.00;;;;;;5012872;28;20037;-88
2021/01/23 07:53:22;;;;;;;9.55;6.53;;;4.70;85.10;;;;;;5013592;28;20106;-90
2021/01/23 07:55:57;;;;;;;8.25;5.20;;;4.70;85.00;;;;;;5011149;28;20058;-89
2021/01/23 07:58:22;;;;;;;8.52;5.07;;;4.60;85.00;;;;;;5009189;28;20029;-89
2021/01/23 08:00:48;;;;;;;11.15;6.10;;;4.70;85.00;;;;;;5012382;28;20034;-89
2021/01/23 08:03:34;;;;;;;15.02;9.52;;;4.80;85.00;;;;;;5013826;28;20054;-90
2021/01/23 08:06:13;;;;;;;13.23;8.65;;;4.70;84.90;;;;;;5015871;28;20089;-89
2021/01/23 08:08:40;;;;;;;10.63;6.57;;;4.70;84.80;;;;;;5021077;28;20025;-90
2021/01/23 08:11:30;;;;;;;12.10;6.90;;;4.70;84.90;;;;;;5019594;28;20037;-89
2021/01/23 08:14:10;;;;;;;14.05;9.25;;;4.70;85.00;;;;;;5015050;28;20058;-90
2021/01/23 08:16:35;;;;;;;8.05;5.53;;;4.70;84.80;;;;;;5014935;28;20098;-90
2021/01/23 08:19:07;;;;;;;11.55;6.50;;;4.70;84.90;;;;;;5017663;28;20030;-89
2021/01/23 08:22:08;;;;;;;9.90;6.35;;;4.60;84.80;;;;;;5019342;28;20038;-89
2021/01/23 08:24:34;;;;;;;9.82;6.50;;;4.70;84.80;;;;;;5017013;28;20042;-89
2021/01/23 08:27:20;;;;;;;8.82;6.40;;;4.60;84.70;;;;;;5020088;28;20479;-90
2021/01/23 08:29:51;;;;;;;7.97;4.65;;;4.70;84.90;;;;;;5018412;28;20052;-90
2021/01/23 08:32:17;;;;;;;9.65;6.43;;;4.80;84.90;;;;;;5013286;28;20040;-89
2021/01/23 08:34:44;;;;;;;8.90;5.97;;;4.80;84.70;;;;;;5015481;28;20025;-89
2021/01/23 08:37:10;;;;;;;9.63;5.75;;;4.80;84.70;;;;;;5024440;28;20037;-89
2021/01/23 08:39:50;;;;;;;12.30;7.60;;;4.90;84.60;;;;;;5020541;28;20018;-89
2021/01/23 08:42:17;;;;;;;10.55;7.03;;;4.90;84.50;;;;;;5027671;28;20033;-90
2021/01/23 08:44:43;;;;;;;9.38;6.05;;;4.90;84.40;;;;;;5012036;28;20057;-89
2021/01/23 08:47:08;;;;;;;5.70;4.13;;;4.90;84.50;;;;;;5011280;28;20077;-89
2021/01/23 08:49:34;;;;;;;5.80;4.35;;;5.00;84.50;;;;;;5015707;28;20488;-90
2021/01/23 08:52:00;;;;;;;7.25;5.28;;;5.00;84.40;;;;;;5011093;28;20488;-90
2021/01/23 08:54:25;;;;;;;8.02;5.22;;;5.10;84.30;;;;;;5012012;28;20087;-90
2021/01/23 08:56:51;;;;;;;7.57;4.68;;;5.10;84.10;;;;;;5009894;28;20026;-89
2021/01/23 08:59:17;;;;;;;8.00;5.75;;;5.10;84.00;;;;;;5010719;28;20033;-89
2021/01/23 09:01:43;;;;;;;8.48;5.00;;;5.20;83.90;;;;;;5010767;28;20026;-89
2021/01/23 09:04:09;;;;;;;9.07;6.22;;;5.10;83.80;;;;;;5014196;28;20068;-89
2021/01/23 09:06:43;;;;;;;11.48;7.93;;;5.10;83.70;;;;;;5016629;28;20087;-90
2021/01/23 09:09:10;;;;;;;6.55;4.40;;;5.10;83.60;;;;;;5017248;28;20014;-89
2021/01/23 09:11:37;;;;;;;11.90;6.65;;;5.10;83.70;;;;;;5015087;28;20014;-90
2021/01/23 09:14:04;;;;;;;7.43;4.50;;;5.10;83.60;;;;;;5027486;28;20018;-90
2021/01/23 09:16:30;;;;;;;7.95;5.03;;;5.10;83.60;;;;;;5015795;28;20026;-89
2021/01/23 09:18:56;;;;;;;5.85;3.72;;;5.20;84.20;;;;;;5019435;28;20370;-89
2021/01/23 09:21:23;;;;;;;9.43;6.07;;;5.20;83.50;;;;;;5018472;28;20093;-90
2021/01/23 09:23:48;;;;;;;9.48;6.78;;;5.30;83.40;;;;;;5012654;28;20240;-90
2021/01/23 09:26:14;;;;;;;8.65;5.93;;;5.30;83.30;;;;;;5024044;28;20055;-90
2021/01/23 09:28:39;;;;;;;8.98;5.40;;;5.30;83.20;;;;;;5018059;28;20108;-91
2021/01/23 09:31:05;;;;;;;7.15;4.75;;;5.30;83.20;;;;;;5020795;28;20168;-90
2021/01/23 09:33:31;;;;;;;7.20;3.85;;;5.40;83.20;;;;;;5018968;28;20049;-90
2021/01/23 09:35:58;;;;;;;7.53;5.03;;;5.50;83.10;;;;;;5015972;28;20061;-90
2021/01/23 09:38:23;;;;;;;6.47;4.40;;;5.50;83.00;;;;;;5017751;28;20072;-90
2021/01/23 09:40:49;;;;;;;7.80;4.13;;;5.50;82.90;;;;;;5028959;28;20086;-87
2021/01/23 09:44:02;;;;;;;7.45;4.43;;;5.60;83.00;;;;;;5033360;28;20030;-88
2021/01/23 09:49:33;;;;;;;7.25;4.72;;;5.70;82.70;;;;;;5055939;22;20061;-89
2021/01/23 09:52:31;;;;;;;9.93;5.15;;;5.70;82.50;;;;;;5019653;28;20018;-88
2021/01/23 09:54:56;;;;;;;6.57;4.45;;;5.70;82.40;;;;;;5028099;28;20073;-88
2021/01/23 09:57:22;;;;;;;8.30;4.07;;;5.80;82.20;;;;;;5016095;28;20033;-91
2021/01/23 09:59:48;;;;;;;6.03;4.07;;;5.60;82.10;;;;;;5014182;28;20027;-89
2021/01/23 10:02:13;;;;;;;6.78;3.75;;;5.80;82.10;;;;;;5005270;28;20034;-88
2021/01/23 10:04:39;;;;;;;7.28;4.55;;;5.80;82.00;;;;;;5011804;28;20038;-89
2021/01/23 10:07:05;;;;;;;6.70;4.45;;;5.90;82.00;;;;;;5001931;28;20491;-89
2021/01/23 10:09:32;;;;;;;6.97;5.35;;;5.90;81.90;;;;;;5015845;28;20622;-89
2021/01/23 10:11:57;;;;;;;7.60;4.88;;;5.90;81.70;;;;;;5021012;28;20081;-88
2021/01/23 10:14:23;;;;;;;6.57;4.63;;;6.00;81.70;;;;;;5018270;28;20510;-89
2021/01/23 10:16:50;;;;;;;6.78;4.18;;;6.00;81.40;;;;;;5028104;28;20037;-90
2021/01/23 10:19:17;;;;;;;5.82;4.15;;;6.00;81.20;;;;;;5026965;28;20031;-89
2021/01/23 10:21:42;;;;;;;5.15;3.97;;;6.10;81.20;;;;;;5004885;28;20026;-90
2021/01/23 10:24:30;;;;;;;5.43;3.92;;;6.20;81.10;;;;;;5006731;28;20030;-91
2021/01/23 10:27:52;;;;;;;8.20;4.30;;;6.10;80.70;;;;;;5007067;28;20039;-91
2021/01/23 10:30:40;;;;;;;5.97;3.70;;;6.20;80.40;;;;;;5011991;28;20026;-92
2021/01/23 10:33:08;;;;;;;6.22;3.85;;;6.20;80.20;;;;;;5032076;28;20018;-91
2021/01/23 10:35:59;;;;;;;9.50;4.75;;;6.40;80.70;;;;;;5020654;28;20034;-89
2021/01/23 10:41:44;;;;;;;6.90;4.25;;;6.20;79.60;;;;;;5023025;28;20049;-92
2021/01/23 10:44:14;;;;;;;6.38;3.88;;;6.20;79.40;;;;;;5024701;28;20105;-92
2021/01/23 10:46:42;;;;;;;6.57;4.65;;;6.20;79.30;;;;;;5020292;28;20093;-92
2021/01/23 10:49:07;;;;;;;7.50;4.50;;;6.40;79.20;;;;;;5001195;28;20030;-91
2021/01/23 10:51:53;;;;;;;6.85;3.83;;;6.30;78.90;;;;;;5021019;28;20428;-91
2021/01/23 10:54:39;;;;;;;;;;;;;;;;;;;;;
2021/01/23 10:57:06;;;;;;;6.63;3.97;;;6.50;78.90;;;;;;5012142;28;20122;-91
2021/01/23 10:59:53;;;;;;;7.50;4.38;;;6.60;78.80;;;;;;5013264;28;20018;-90
2021/01/23 11:05:43;;;;;;;;;;;6.60;78.40;;;;;;4944925;28;20102;-93
2021/01/23 11:08:11;;;;;;;5.57;3.95;;;6.60;78.30;;;;;;4986414;28;19917;-93
2021/01/23 11:10:53;;;;;;;6.25;3.65;;;6.60;78.20;;;;;;4997703;28;20052;-96
2021/01/23 11:13:19;;;;;;;4.97;3.80;;;6.70;78.30;;;;;;5000134;28;20030;-91
2021/01/23 11:15:47;;;;;;;6.13;3.78;;;6.60;78.00;;;;;;4989953;28;20036;-92
2021/01/23 11:18:15;;;;;;;5.63;3.90;;;6.60;77.90;;;;;;4995156;28;20030;-92
2021/01/23 11:20:41;;;;;;;5.88;3.50;;;6.60;77.70;;;;;;5000718;28;20321;-92
2021/01/23 11:23:07;;;;;;;4.65;3.15;;;6.80;77.80;;;;;;4997518;28;20027;-92
2021/01/23 11:25:32;;;;;;;4.70;3.50;;;6.60;77.60;;;;;;4980658;28;20117;-92
2021/01/23 11:27:58;;;;;;;5.90;3.42;;;6.60;77.80;;;;;;4993169;28;20490;-92
2021/01/23 11:30:25;;;;;;;4.30;3.15;;;6.60;77.80;;;;;;4985439;28;20121;-92
2021/01/23 11:32:51;;;;;;;5.65;3.33;;;6.60;77.80;;;;;;4981370;28;20053;-92
2021/01/23 11:35:22;;;;;;;4.20;2.97;;;6.80;78.00;;;;;;4977283;28;20030;-92
2021/01/23 11:37:48;;;;;;;4.93;3.20;;;6.80;77.90;;;;;;4986878;28;20041;-92
2021/01/23 11:40:13;;;;;;;3.28;2.50;;;6.80;77.60;;;;;;4980696;28;20023;-91
2021/01/23 11:42:39;;;;;;;7.05;3.88;;;6.80;77.50;;;;;;5002692;28;20034;-91
2021/01/23 11:45:06;;;;;;;5.40;3.10;;;6.90;77.30;;;;;;4998773;28;20038;-92
2021/01/23 11:47:32;;;;;;;5.35;3.65;;;6.80;77.20;;;;;;4988909;28;20078;-92
2021/01/23 11:49:57;;;;;;;5.93;3.63;;;6.80;77.10;;;;;;4995246;28;20065;-92
2021/01/23 11:52:23;;;;;;;3.97;2.63;;;6.80;77.20;;;;;;4982290;28;20027;-92
2021/01/23 11:54:49;;;;;;;6.28;3.13;;;6.90;77.20;;;;;;4979230;28;20034;-92
2021/01/23 11:57:17;;;;;;;7.40;3.50;;;6.90;76.90;;;;;;4981592;28;20050;-92
2021/01/23 11:59:44;;;;;;;4.03;2.88;;;7.00;76.90;;;;;;4972644;28;20038;-92
2021/01/23 12:02:10;;;;;;;5.00;3.38;;;7.10;76.80;;;;;;4987501;28;20034;-93
2021/01/23 12:04:36;;;;;;;6.07;3.20;;;7.10;76.60;;;;;;4988270;28;20030;-91
2021/01/23 12:07:01;;;;;;;4.57;3.70;;;7.40;76.80;;;;;;4992956;28;20536;-92
2021/01/23 12:09:28;;;;;;;6.30;3.72;;;7.40;76.50;;;;;;4982578;28;20496;-93
2021/01/23 12:11:55;;;;;;;4.53;2.80;;;7.50;76.20;;;;;;4992548;28;20030;-92
2021/01/23 12:14:21;;;;;;;3.85;2.95;;;7.40;76.00;;;;;;5013590;28;20002;-91
2021/01/23 12:16:47;;;;;;;4.40;2.83;;;7.40;75.90;;;;;;5012016;28;20057;-92
2021/01/23 12:19:13;;;;;;;3.67;2.42;;;7.50;75.70;;;;;;5017149;28;20022;-91
2021/01/23 12:21:39;;;;;;;3.65;2.67;;;7.40;75.80;;;;;;5023751;28;20037;-92
2021/01/23 12:24:07;;;;;;;3.28;2.13;;;7.40;75.80;;;;;;5012923;28;20030;-93
2021/01/23 12:26:34;;;;;;;3.17;2.47;;;7.50;75.60;;;;;;5016821;28;20064;-91
2021/01/23 12:29:01;;;;;;;4.82;2.38;;;7.50;75.50;;;;;;5009124;28;20046;-93
2021/01/23 12:31:27;;;;;;;4.93;3.33;;;7.40;75.40;;;;;;5015325;28;20034;-92
2021/01/23 12:33:52;;;;;;;5.68;3.30;;;7.30;74.90;;;;;;4997209;28;20033;-92
2021/01/23 12:36:18;;;;;;;3.85;2.78;;;7.20;75.30;;;;;;4999622;28;20027;-93
2021/01/23 12:38:43;;;;;;;5.90;3.30;;;7.20;75.00;;;;;;5004187;28;20026;-92
2021/01/23 12:41:50;;;;;;;3.20;2.42;;;7.20;75.00;;;;;;5003167;28;20061;-92
2021/01/23 12:44:18;;;;;;;3.40;2.60;;;7.10;75.00;;;;;;5066664;22;20061;-92
2021/01/23 12:46:52;;;;;;;4.18;2.72;;;7.20;75.10;;;;;;4982465;28;20038;-92
2021/01/23 12:49:19;;;;;;;3.28;2.22;;;7.20;75.00;;;;;;4992012;28;20076;-92
2021/01/23 12:51:45;;;;;;;4.82;3.15;;;7.10;74.80;;;;;;4976905;28;20037;-92
2021/01/23 12:54:11;;;;;;;4.07;2.97;;;7.10;74.70;;;;;;4981919;28;20350;-92
2021/01/23 12:56:37;;;;;;;4.38;2.92;;;7.20;74.70;;;;;;4954633;28;20058;-93
2021/01/23 12:59:10;;;;;;;4.43;3.00;;;7.10;74.10;;;;;;4959283;28;20026;-93
2021/01/23 13:01:42;;;;;;;5.75;3.97;;;7.00;74.30;;;;;;4974079;28;20026;-86
2021/01/23 13:04:54;;;;;;;6.07;3.70;;;7.30;74.20;;;;;;4955855;28;20046;-88
2021/01/23 13:07:20;;;;;;;5.15;3.20;;;7.10;73.70;;;;;;4979857;28;20053;-90
2021/01/23 13:09:46;;;;;;;4.63;3.40;;;7.30;74.10;;;;;;4966292;28;20067;-86
2021/01/23 13:12:18;;;;;;;6.18;3.70;;;7.10;74.10;;;;;;4988740;28;20034;-93
2021/01/23 13:14:44;;;;;;;8.95;5.32;;;7.10;74.00;;;;;;4993645;28;20073;-92
2021/01/23 13:17:12;;;;;;;6.88;4.07;;;7.00;73.80;;;;;;4999079;28;20034;-96
2021/01/23 13:19:38;;;;;;;6.05;3.88;;;6.90;73.90;;;;;;4961886;28;20021;-94
2021/01/23 13:22:05;;;;;;;7.97;3.55;;;6.90;74.00;;;;;;4994125;28;20116;-93